createdAt,value
2022-12-09T00:00:31.167Z,4.90
2022-12-09T00:02:58.922Z,4.90
2022-12-09T00:05:26.060Z,4.90
2022-12-09T00:07:52.929Z,4.90
2022-12-09T00:10:19.812Z,4.90
2022-12-09T00:12:46.736Z,4.90
2022-12-09T00:15:13.565Z,4.90
2022-12-09T00:17:40.456Z,4.90
2022-12-09T00:20:08.461Z,4.90
2022-12-09T00:22:35.455Z,4.90
2022-12-09T00:25:02.287Z,4.80
2022-12-09T00:27:29.194Z,4.90
2022-12-09T00:29:56.059Z,4.90
2022-12-09T00:32:23.056Z,4.90
2022-12-09T00:34:49.961Z,4.90
2022-12-09T00:37:17.067Z,4.90
2022-12-09T00:39:43.984Z,4.90
2022-12-09T00:42:10.812Z,4.80
2022-12-09T00:44:37.834Z,4.90
2022-12-09T00:47:04.952Z,4.80
2022-12-09T00:49:31.810Z,4.80
2022-12-09T00:51:58.610Z,4.80
2022-12-09T00:54:25.537Z,4.80
2022-12-09T00:56:52.635Z,4.80
2022-12-09T00:59:19.611Z,4.70
2022-12-09T01:01:46.615Z,4.70
2022-12-09T01:04:14.033Z,4.70
2022-12-09T01:06:41.729Z,4.70
2022-12-09T01:09:09.053Z,4.70
2022-12-09T01:11:36.652Z,4.70
2022-12-09T01:14:04.153Z,4.60
2022-12-09T01:16:33.888Z,4.60
2022-12-09T01:19:04.560Z,4.70
2022-12-09T01:21:32.604Z,4.60
2022-12-09T01:23:59.682Z,4.70
2022-12-09T01:26:27.129Z,4.70
2022-12-09T01:28:55.652Z,4.60
2022-12-09T01:31:25.218Z,4.60
2022-12-09T01:33:54.265Z,4.60
2022-12-09T01:36:26.885Z,4.60
2022-12-09T01:38:54.673Z,4.60
2022-12-09T01:41:22.729Z,4.60
2022-12-09T01:44:18.939Z,4.60
2022-12-09T01:46:46.925Z,4.60
2022-12-09T01:49:22.172Z,4.60
2022-12-09T01:51:56.959Z,4.60
2022-12-09T01:54:24.102Z,4.50
2022-12-09T01:56:51.675Z,4.60
2022-12-09T01:59:18.662Z,4.60
2022-12-09T02:01:50.258Z,4.60
2022-12-09T02:04:17.815Z,4.60
2022-12-09T02:06:45.071Z,4.60
2022-12-09T02:09:12.190Z,4.60
2022-12-09T02:12:01.116Z,4.60
2022-12-09T02:14:37.169Z,4.60
2022-12-09T02:17:34.968Z,4.60
2022-12-09T02:20:05.781Z,4.60
2022-12-09T02:23:08.833Z,4.60
2022-12-09T02:25:49.782Z,4.50
2022-12-09T02:28:28.486Z,4.50
2022-12-09T02:31:14.329Z,4.50
2022-12-09T02:33:59.493Z,4.50
2022-12-09T02:36:30.465Z,4.50
2022-12-09T02:38:59.515Z,4.40
2022-12-09T02:41:29.850Z,4.50
2022-12-09T02:44:12.566Z,4.50
2022-12-09T02:46:41.154Z,4.50
2022-12-09T02:49:08.704Z,4.50
2022-12-09T02:51:42.407Z,4.50
2022-12-09T02:54:13.662Z,4.50
2022-12-09T02:56:45.706Z,4.50
2022-12-09T02:59:12.849Z,4.50
2022-12-09T03:01:48.475Z,4.50
2022-12-09T03:04:21.461Z,4.50
2022-12-09T03:06:53.114Z,4.50
2022-12-09T03:09:29.410Z,4.50
2022-12-09T03:12:01.354Z,4.50
2022-12-09T03:14:36.664Z,4.50
2022-12-09T03:17:20.282Z,4.40
2022-12-09T03:19:54.862Z,4.40
2022-12-09T03:22:26.472Z,4.50
2022-12-09T03:25:14.166Z,4.50
2022-12-09T03:27:46.713Z,4.50
2022-12-09T03:30:16.166Z,4.40
2022-12-09T03:32:45.170Z,4.40
2022-12-09T03:35:23.627Z,4.40
2022-12-09T03:37:51.870Z,4.40
2022-12-09T03:40:28.441Z,4.40
2022-12-09T03:43:13.348Z,4.40
2022-12-09T03:45:41.632Z,4.40
2022-12-09T03:48:09.727Z,4.40
2022-12-09T03:50:48.472Z,4.40
2022-12-09T03:53:25.137Z,4.40
2022-12-09T03:56:01.367Z,4.40
2022-12-09T03:58:30.128Z,4.40
2022-12-09T04:00:57.426Z,4.40
2022-12-09T04:03:24.456Z,4.40
2022-12-09T04:05:51.459Z,4.50
2022-12-09T04:08:18.342Z,4.50
2022-12-09T04:10:45.290Z,4.40
2022-12-09T04:13:12.437Z,4.40
2022-12-09T04:15:39.307Z,4.40
2022-12-09T04:18:06.484Z,4.40
2022-12-09T04:20:33.471Z,4.40
2022-12-09T04:23:00.325Z,4.40
2022-12-09T04:25:27.512Z,4.40
2022-12-09T04:27:54.457Z,4.40
2022-12-09T04:30:21.917Z,4.30
2022-12-09T04:32:49.265Z,4.30
2022-12-09T04:35:16.335Z,4.30
2022-12-09T04:37:43.269Z,4.30
2022-12-09T04:40:11.264Z,4.30
2022-12-09T04:42:38.466Z,4.20
2022-12-09T04:45:06.220Z,4.20
2022-12-09T04:47:34.442Z,4.20
2022-12-09T04:50:01.542Z,4.20
2022-12-09T04:52:28.437Z,4.20
2022-12-09T04:54:55.758Z,4.20
2022-12-09T04:57:23.035Z,4.10
2022-12-09T04:59:49.812Z,4.10
2022-12-09T05:02:16.979Z,4.00
2022-12-09T05:04:46.757Z,4.00
2022-12-09T05:07:14.718Z,4.10
2022-12-09T05:09:41.855Z,4.10
2022-12-09T05:12:08.956Z,4.10
2022-12-09T05:14:36.250Z,4.10
2022-12-09T05:17:04.434Z,4.10
2022-12-09T05:19:31.654Z,4.10
2022-12-09T05:21:58.854Z,4.10
2022-12-09T05:24:26.067Z,4.10
2022-12-09T05:26:53.102Z,4.20
2022-12-09T05:29:23.011Z,4.20
2022-12-09T05:31:51.684Z,4.20
2022-12-09T05:34:19.312Z,4.20
2022-12-09T05:36:46.855Z,4.20
2022-12-09T05:39:13.999Z,4.20
2022-12-09T05:41:41.185Z,4.20
2022-12-09T05:44:08.287Z,4.20
2022-12-09T05:46:35.312Z,4.10
2022-12-09T05:49:02.914Z,4.10
2022-12-09T05:51:30.639Z,4.20
2022-12-09T05:54:01.305Z,4.20
2022-12-09T05:56:29.063Z,4.20
2022-12-09T05:58:56.534Z,4.20
2022-12-09T06:01:24.987Z,4.20
2022-12-09T06:03:53.219Z,4.10
2022-12-09T06:06:23.023Z,4.10
2022-12-09T06:08:50.153Z,4.10
2022-12-09T06:11:21.935Z,4.10
2022-12-09T06:13:50.075Z,4.10
2022-12-09T06:16:21.767Z,4.10
2022-12-09T06:18:50.369Z,4.10
2022-12-09T06:21:19.295Z,4.10
2022-12-09T06:23:47.080Z,4.10
2022-12-09T06:26:23.057Z,4.00
2022-12-09T06:28:50.227Z,4.00
2022-12-09T06:31:18.118Z,4.00
2022-12-09T06:33:55.496Z,4.00
2022-12-09T06:36:23.642Z,4.00
2022-12-09T06:38:50.764Z,3.90
2022-12-09T06:41:17.921Z,3.90
2022-12-09T06:43:45.449Z,3.90
2022-12-09T06:46:15.447Z,3.80
2022-12-09T06:48:42.801Z,3.80
2022-12-09T06:51:10.453Z,3.80
2022-12-09T06:53:37.486Z,3.70
2022-12-09T06:56:11.524Z,3.70
2022-12-09T06:58:40.569Z,3.70
2022-12-09T07:01:22.155Z,3.70
2022-12-09T07:03:56.210Z,3.70
2022-12-09T07:06:38.533Z,3.70
2022-12-09T07:09:12.299Z,3.70
2022-12-09T07:11:40.495Z,3.80
2022-12-09T07:14:08.087Z,3.70
2022-12-09T07:16:35.996Z,3.70
2022-12-09T07:19:04.284Z,3.70
2022-12-09T07:21:31.557Z,3.60
2022-12-09T07:24:03.131Z,3.60
2022-12-09T07:26:32.765Z,3.60
2022-12-09T07:29:02.964Z,3.60
2022-12-09T07:31:30.208Z,3.50
2022-12-09T07:33:58.920Z,3.60
2022-12-09T07:36:28.130Z,3.50
2022-12-09T07:39:00.221Z,3.60
2022-12-09T07:41:28.220Z,3.50
2022-12-09T07:43:55.816Z,3.60
2022-12-09T07:46:24.320Z,3.60
2022-12-09T07:48:51.896Z,3.60
2022-12-09T07:51:19.321Z,3.60
2022-12-09T07:53:47.180Z,3.60
2022-12-09T07:56:16.327Z,3.60
2022-12-09T07:58:44.602Z,3.60
2022-12-09T08:01:14.162Z,3.70
2022-12-09T08:03:42.553Z,3.70
2022-12-09T08:06:15.103Z,3.70
2022-12-09T08:08:44.010Z,3.70
2022-12-09T08:11:13.796Z,3.80
2022-12-09T08:13:42.439Z,3.80
2022-12-09T08:16:11.764Z,3.80
2022-12-09T08:18:39.334Z,3.90
2022-12-09T08:21:21.931Z,3.90
2022-12-09T08:23:50.117Z,3.90
2022-12-09T08:26:20.659Z,4.00
2022-12-09T08:28:48.733Z,4.00
2022-12-09T08:31:24.888Z,4.10
2022-12-09T08:33:53.025Z,4.10
2022-12-09T08:36:23.143Z,4.20
2022-12-09T08:38:50.256Z,4.20
2022-12-09T08:41:22.242Z,4.30
2022-12-09T08:43:49.403Z,4.30
2022-12-09T08:46:16.421Z,4.40
2022-12-09T08:48:43.773Z,4.40
2022-12-09T08:51:12.278Z,4.40
2022-12-09T08:53:40.053Z,4.40
2022-12-09T08:56:15.540Z,4.50
2022-12-09T08:58:43.216Z,4.50
2022-12-09T09:01:22.675Z,4.50
2022-12-09T09:03:50.847Z,4.50
2022-12-09T09:06:19.176Z,4.50
2022-12-09T09:08:46.802Z,4.50
2022-12-09T09:11:17.701Z,4.50
2022-12-09T09:13:46.935Z,4.50
2022-12-09T09:16:19.373Z,4.60
2022-12-09T09:18:46.614Z,4.60
2022-12-09T09:21:16.893Z,4.50
2022-12-09T09:23:44.795Z,4.50
2022-12-09T09:26:23.685Z,4.50
2022-12-09T09:28:51.019Z,4.50
2022-12-09T09:31:21.455Z,4.60
2022-12-09T09:33:49.772Z,4.60
2022-12-09T09:36:22.778Z,4.50
2022-12-09T09:38:53.137Z,4.60
2022-12-09T09:41:42.714Z,4.60
2022-12-09T09:44:28.108Z,4.60
2022-12-09T09:46:57.399Z,4.60
2022-12-09T09:49:45.606Z,4.60
2022-12-09T09:52:21.841Z,4.60
2022-12-09T09:54:48.789Z,4.60
2022-12-09T09:57:22.157Z,4.70
2022-12-09T10:00:09.793Z,4.70
2022-12-09T10:02:55.938Z,4.80
2022-12-09T10:05:34.453Z,4.80
2022-12-09T10:08:23.726Z,4.80
2022-12-09T10:11:12.956Z,4.80
2022-12-09T10:14:15.254Z,4.90
2022-12-09T10:16:50.647Z,4.90
2022-12-09T10:19:44.487Z,4.90
2022-12-09T10:22:19.649Z,4.90
2022-12-09T10:24:53.498Z,4.90
2022-12-09T10:27:38.177Z,5.00
2022-12-09T10:30:12.026Z,5.00
2022-12-09T10:32:40.541Z,5.00
2022-12-09T10:35:16.654Z,5.00
2022-12-09T10:37:43.880Z,5.10
2022-12-09T10:40:11.951Z,5.10
2022-12-09T10:43:03.850Z,5.10
2022-12-09T10:45:52.653Z,5.20
2022-12-09T10:48:37.581Z,5.20
2022-12-09T10:51:15.093Z,5.20
2022-12-09T10:53:48.913Z,5.20
2022-12-09T10:56:29.039Z,5.30
2022-12-09T10:59:27.267Z,5.20
2022-12-09T11:01:58.670Z,5.30
2022-12-09T11:04:28.689Z,5.30
2022-12-09T11:07:14.929Z,5.30
2022-12-09T11:09:48.187Z,5.30
2022-12-09T11:12:41.241Z,5.30
2022-12-09T11:15:35.370Z,5.40
2022-12-09T11:18:15.017Z,5.40
2022-12-09T11:20:42.285Z,5.40
2022-12-09T11:23:12.330Z,5.40
2022-12-09T11:25:56.416Z,5.40
2022-12-09T11:28:28.416Z,5.40
2022-12-09T11:31:27.754Z,5.40
2022-12-09T11:34:15.824Z,5.50
2022-12-09T11:36:54.373Z,5.50
2022-12-09T11:39:25.903Z,5.50
2022-12-09T11:42:17.692Z,5.50
2022-12-09T11:44:59.295Z,5.50
2022-12-09T11:48:13.569Z,5.50
2022-12-09T11:50:31.332Z,5.50
2022-12-09T11:53:10.783Z,5.60
2022-12-09T11:55:51.306Z,5.60
2022-12-09T11:58:49.774Z,5.50
2022-12-09T12:01:23.528Z,5.50
2022-12-09T12:04:05.311Z,5.50
2022-12-09T12:06:46.582Z,5.60
2022-12-09T12:09:23.896Z,5.60
2022-12-09T12:12:13.935Z,5.60
2022-12-09T12:14:43.482Z,5.60
2022-12-09T12:17:43.218Z,5.60
2022-12-09T12:20:14.256Z,5.60
2022-12-09T12:23:01.255Z,5.60
2022-12-09T12:26:02.023Z,5.60
2022-12-09T12:28:50.531Z,5.60
2022-12-09T12:31:45.252Z,5.60
2022-12-09T12:34:27.748Z,5.60
2022-12-09T12:36:57.298Z,5.60
2022-12-09T12:39:38.077Z,5.70
2022-12-09T12:42:20.289Z,5.60
2022-12-09T12:45:18.298Z,5.70
2022-12-09T12:47:53.304Z,5.70
2022-12-09T12:50:51.758Z,5.60
2022-12-09T12:53:18.491Z,5.70
2022-12-09T12:55:59.758Z,5.60
2022-12-09T12:58:54.479Z,5.60
2022-12-09T13:01:33.648Z,5.60
2022-12-09T13:04:31.636Z,5.60
2022-12-09T13:07:24.320Z,5.60
2022-12-09T13:10:02.598Z,5.60
2022-12-09T13:13:01.705Z,5.60
2022-12-09T13:15:41.880Z,5.60
2022-12-09T13:18:23.595Z,5.60
2022-12-09T13:20:55.404Z,5.60
2022-12-09T13:23:41.073Z,5.60
2022-12-09T13:26:32.128Z,5.60
2022-12-09T13:29:10.968Z,5.60
2022-12-09T13:31:48.813Z,5.60
2022-12-09T13:34:38.937Z,5.50
2022-12-09T13:37:25.803Z,5.50
2022-12-09T13:39:55.931Z,5.50
2022-12-09T13:42:46.336Z,5.50
2022-12-09T13:45:37.098Z,5.50
2022-12-09T13:48:23.902Z,5.50
2022-12-09T13:50:56.099Z,5.50
2022-12-09T13:53:33.843Z,5.40
2022-12-09T13:56:22.011Z,5.40
2022-12-09T13:59:11.230Z,5.30
2022-12-09T14:01:53.348Z,5.20
2022-12-09T14:04:25.831Z,5.20
2022-12-09T14:06:57.989Z,5.10
2022-12-09T14:09:44.580Z,5.10
2022-12-09T14:12:32.687Z,5.10
2022-12-09T14:15:25.536Z,5.10
2022-12-09T14:17:52.350Z,5.20
2022-12-09T14:20:23.854Z,5.20
2022-12-09T14:23:04.923Z,5.10
2022-12-09T14:25:34.480Z,5.10
2022-12-09T14:28:10.140Z,5.10
2022-12-09T14:30:52.537Z,5.10
2022-12-09T14:33:31.113Z,5.00
2022-12-09T14:36:20.117Z,5.00
2022-12-09T14:39:23.035Z,5.00
2022-12-09T14:42:13.142Z,4.90
2022-12-09T14:45:11.899Z,4.80
2022-12-09T14:47:43.579Z,4.80
2022-12-09T14:50:20.019Z,4.70
2022-12-09T14:53:02.612Z,4.70
2022-12-09T14:55:40.241Z,4.70
2022-12-09T14:58:07.054Z,4.70
2022-12-09T15:00:40.904Z,4.60
2022-12-09T15:03:45.435Z,4.60
2022-12-09T15:06:17.881Z,4.60
2022-12-09T15:08:45.182Z,4.60
2022-12-09T15:11:21.973Z,4.70
2022-12-09T15:13:52.097Z,4.70
2022-12-09T15:16:23.486Z,4.60
2022-12-09T15:18:52.086Z,4.60
2022-12-09T15:21:30.590Z,4.60
2022-12-09T15:23:59.130Z,4.60
2022-12-09T15:26:29.116Z,4.50
2022-12-09T15:28:57.500Z,4.50
2022-12-09T15:31:27.085Z,4.50
2022-12-09T15:33:59.341Z,4.50
2022-12-09T15:36:39.167Z,4.50
2022-12-09T15:39:07.791Z,4.50
2022-12-09T15:42:02.029Z,4.50
2022-12-09T15:44:36.244Z,4.50
2022-12-09T15:47:10.528Z,4.50
2022-12-09T15:50:00.854Z,4.50
2022-12-09T15:52:46.150Z,4.50
2022-12-09T15:55:17.858Z,4.50
2022-12-09T15:57:46.154Z,4.50
2022-12-09T16:00:13.875Z,4.50
2022-12-09T16:02:41.319Z,4.50
2022-12-09T16:05:10.439Z,4.50
2022-12-09T16:07:38.189Z,4.50
2022-12-09T16:10:12.628Z,4.50
2022-12-09T16:12:40.960Z,4.50
2022-12-09T16:15:14.050Z,4.50
2022-12-09T16:17:55.622Z,4.50
2022-12-09T16:20:33.424Z,4.50
2022-12-09T16:23:01.666Z,4.50
2022-12-09T16:25:34.837Z,4.50
2022-12-09T16:28:04.291Z,4.50
2022-12-09T16:30:34.497Z,4.50
2022-12-09T16:33:14.168Z,4.50
2022-12-09T16:35:45.637Z,4.50
2022-12-09T16:38:16.341Z,4.50
2022-12-09T16:40:46.453Z,4.50
2022-12-09T16:43:16.459Z,4.60
2022-12-09T16:45:48.848Z,4.60
2022-12-09T16:48:17.322Z,4.60
2022-12-09T16:50:49.352Z,4.60
2022-12-09T16:53:23.323Z,4.60
2022-12-09T16:55:52.928Z,4.60
2022-12-09T16:58:19.776Z,4.60
2022-12-09T17:00:47.476Z,4.60
2022-12-09T17:03:26.229Z,4.60
2022-12-09T17:05:53.004Z,4.60
2022-12-09T17:08:20.345Z,4.60
2022-12-09T17:10:47.191Z,4.50
2022-12-09T17:13:14.061Z,4.60
2022-12-09T17:15:42.198Z,4.60
2022-12-09T17:18:10.354Z,4.60
2022-12-09T17:20:38.248Z,4.60
2022-12-09T17:23:05.445Z,4.60
2022-12-09T17:25:33.361Z,4.60
2022-12-09T17:28:05.229Z,4.60
2022-12-09T17:30:32.134Z,4.60
2022-12-09T17:32:59.897Z,4.70
2022-12-09T17:35:27.219Z,4.70
2022-12-09T17:37:54.139Z,4.70
2022-12-09T17:40:21.069Z,4.70
2022-12-09T17:42:47.932Z,4.70
2022-12-09T17:45:15.819Z,4.70
2022-12-09T17:47:42.617Z,4.70
2022-12-09T17:50:10.037Z,4.60
2022-12-09T17:52:37.091Z,4.60
2022-12-09T17:55:04.372Z,4.60
2022-12-09T17:57:31.290Z,4.60
2022-12-09T17:59:58.064Z,4.60
2022-12-09T18:02:25.094Z,4.60
2022-12-09T18:04:52.058Z,4.60
2022-12-09T18:07:18.936Z,4.60
2022-12-09T18:09:48.676Z,4.50
2022-12-09T18:12:19.766Z,4.50
2022-12-09T18:14:46.628Z,4.50
2022-12-09T18:17:13.516Z,4.50
2022-12-09T18:19:40.468Z,4.60
2022-12-09T18:22:07.388Z,4.60
2022-12-09T18:24:34.295Z,4.50
2022-12-09T18:27:01.238Z,4.50
2022-12-09T18:29:28.176Z,4.50
2022-12-09T18:31:58.531Z,4.50
2022-12-09T18:34:27.426Z,4.50
2022-12-09T18:36:55.051Z,4.50
2022-12-09T18:39:22.276Z,4.50
2022-12-09T18:41:49.305Z,4.50
2022-12-09T18:44:16.618Z,4.50
2022-12-09T18:46:49.393Z,4.50
2022-12-09T18:49:17.651Z,4.50
2022-12-09T18:51:45.827Z,4.50
2022-12-09T18:54:18.094Z,4.50
2022-12-09T18:56:45.119Z,4.50
2022-12-09T18:59:12.124Z,4.50
2022-12-09T19:01:42.216Z,4.40
2022-12-09T19:04:14.098Z,4.50
2022-12-09T19:06:42.993Z,4.50
2022-12-09T19:09:16.703Z,4.40
2022-12-09T19:11:46.738Z,4.40
2022-12-09T19:14:14.388Z,4.40
2022-12-09T19:16:42.554Z,4.40
2022-12-09T19:19:12.648Z,4.50
2022-12-09T19:21:39.924Z,4.40
2022-12-09T19:24:08.331Z,4.50
2022-12-09T19:26:36.628Z,4.50
2022-12-09T19:29:06.462Z,4.50
2022-12-09T19:31:40.212Z,4.50
2022-12-09T19:34:17.190Z,4.50
2022-12-09T19:36:45.843Z,4.50
2022-12-09T19:39:14.096Z,4.50
2022-12-09T19:41:41.900Z,4.50
2022-12-09T19:44:21.612Z,4.50
2022-12-09T19:46:58.321Z,4.50
2022-12-09T19:49:25.289Z,4.40
2022-12-09T19:51:52.871Z,4.50
2022-12-09T19:54:26.708Z,4.50
2022-12-09T19:56:55.318Z,4.40
2022-12-09T19:59:22.157Z,4.40
2022-12-09T20:01:49.001Z,4.40
2022-12-09T20:04:47.644Z,4.40
2022-12-09T20:07:08.299Z,4.40
2022-12-09T20:09:36.926Z,4.50
2022-12-09T20:12:04.105Z,4.40
2022-12-09T20:14:30.900Z,4.50
2022-12-09T20:16:57.746Z,4.40
2022-12-09T20:19:24.740Z,4.50
2022-12-09T20:21:51.693Z,4.40
2022-12-09T20:24:19.440Z,4.40
2022-12-09T20:26:46.361Z,4.40
2022-12-09T20:29:13.394Z,4.40
2022-12-09T20:31:41.547Z,4.50
2022-12-09T20:34:12.700Z,4.50
2022-12-09T20:36:41.232Z,4.50
2022-12-09T20:39:14.943Z,4.50
2022-12-09T20:41:42.430Z,4.50
2022-12-09T20:44:10.714Z,4.50
2022-12-09T20:46:39.148Z,4.40
2022-12-09T20:49:06.272Z,4.40
2022-12-09T20:51:39.326Z,4.40
2022-12-09T20:54:07.408Z,4.40
2022-12-09T20:56:35.687Z,4.40
2022-12-09T20:59:03.364Z,4.40
2022-12-09T21:01:33.094Z,4.40
2022-12-09T21:04:01.363Z,4.40
2022-12-09T21:06:32.005Z,4.40
2022-12-09T21:09:04.284Z,4.40
2022-12-09T21:11:32.453Z,4.40
2022-12-09T21:14:01.308Z,4.40
2022-12-09T21:16:30.712Z,4.50
2022-12-09T21:19:05.736Z,4.50
2022-12-09T21:21:35.799Z,4.40
2022-12-09T21:24:03.798Z,4.40
2022-12-09T21:26:31.006Z,4.50
2022-12-09T21:29:00.331Z,4.40
2022-12-09T21:31:30.279Z,4.40
2022-12-09T21:33:58.562Z,4.40
2022-12-09T21:36:28.855Z,4.40
2022-12-09T21:38:56.233Z,4.40
2022-12-09T21:41:25.942Z,4.50
2022-12-09T21:43:55.048Z,4.40
2022-12-09T21:46:28.553Z,4.40
2022-12-09T21:49:03.043Z,4.50
2022-12-09T21:51:31.548Z,4.50
2022-12-09T21:53:58.412Z,4.50
2022-12-09T21:56:30.940Z,4.50
2022-12-09T21:58:59.029Z,4.50
2022-12-09T22:01:37.389Z,4.60
2022-12-09T22:04:06.538Z,4.60
2022-12-09T22:06:34.038Z,4.60
2022-12-09T22:09:01.902Z,4.60
2022-12-09T22:11:31.667Z,4.60
2022-12-09T22:14:00.110Z,4.60
2022-12-09T22:16:39.442Z,4.60
2022-12-09T22:19:08.476Z,4.50
2022-12-09T22:21:36.668Z,4.50
2022-12-09T22:24:06.464Z,4.50
2022-12-09T22:26:34.057Z,4.60
2022-12-09T22:29:02.944Z,4.50
2022-12-09T22:31:32.250Z,4.50
2022-12-09T22:34:01.797Z,4.60
2022-12-09T22:36:28.829Z,4.60
2022-12-09T22:38:55.826Z,4.60
2022-12-09T22:41:25.876Z,4.60
2022-12-09T22:43:54.962Z,4.60
2022-12-09T22:46:25.051Z,4.60
2022-12-09T22:48:52.676Z,4.70
2022-12-09T22:51:22.563Z,4.60
2022-12-09T22:53:51.148Z,4.70
2022-12-09T22:56:18.702Z,4.60
2022-12-09T22:58:46.334Z,4.60
2022-12-09T23:01:16.399Z,4.60
2022-12-09T23:03:43.940Z,4.60
2022-12-09T23:06:11.791Z,4.60
2022-12-09T23:08:39.946Z,4.60
2022-12-09T23:11:10.678Z,4.60
2022-12-09T23:13:41.264Z,4.60
2022-12-09T23:16:12.708Z,4.60
2022-12-09T23:18:40.077Z,4.60
2022-12-09T23:21:22.465Z,4.60
2022-12-09T23:23:53.441Z,4.60
2022-12-09T23:26:22.037Z,4.60
2022-12-09T23:28:52.173Z,4.60
2022-12-09T23:31:20.944Z,4.70
2022-12-09T23:33:48.768Z,4.70
2022-12-09T23:36:31.015Z,4.70
2022-12-09T23:38:59.541Z,4.70
2022-12-09T23:41:27.191Z,4.70
2022-12-09T23:43:54.674Z,4.70
2022-12-09T23:46:23.996Z,4.70
2022-12-09T23:48:52.296Z,4.70
2022-12-09T23:51:24.614Z,4.70
2022-12-09T23:53:54.053Z,4.70
2022-12-09T23:56:24.003Z,4.70
2022-12-09T23:58:59.559Z,4.70
